Time;durP1;ratioP1;P1;durP2;ratioP2;P2;SDS_P1;SDS_P2;PMS_P1;PMS_P2;Temp;Humidity;BMP_temperature;BMP_pressure;BME280_temperature;BME280_humidity;BME280_pressure;Samples;Min_cycle;Max_cycle;Signal;HPM_P1;HPM_P2
2022/04/04 00:00:09;;;;;;;9.13;7.80;;;;;;;;;;5071447;28;20484;-55
2022/04/04 00:02:35;;;;;;;8.20;7.00;;;;;;;;;;5072789;28;20425;-54
2022/04/04 00:05:01;;;;;;;6.67;6.00;;;;;;;;;;5072741;28;20442;-53
2022/04/04 00:07:28;;;;;;;8.63;7.70;;;;;;;;;;5071441;28;20419;-54
2022/04/04 00:09:54;;;;;;;13.13;9.07;;;;;;;;;;5072732;28;20918;-53
2022/04/04 00:12:20;;;;;;;11.23;8.60;;;;;;;;;;5072861;28;20501;-54
2022/04/04 00:14:46;;;;;;;9.57;8.10;;;;;;;;;;5071739;28;20465;-53
2022/04/04 00:17:13;;;;;;;8.67;7.37;;;;;;;;;;5072503;28;20399;-57
2022/04/04 00:19:39;;;;;;;8.40;7.60;;;;;;;;;;5071101;28;20831;-55
2022/04/04 00:22:05;;;;;;;9.03;8.20;;;;;;;;;;5072556;28;20963;-56
2022/04/04 00:24:32;;;;;;;8.37;7.57;;;;;;;;;;5072547;28;20410;-56
2022/04/04 00:26:58;;;;;;;8.63;7.83;;;;;;;;;;5072451;28;20910;-60
2022/04/04 00:29:25;;;;;;;12.00;7.00;;;;;;;;;;5072487;28;20508;-57
2022/04/04 00:31:51;;;;;;;7.87;7.03;;;;;;;;;;5072667;28;20751;-59
2022/04/04 00:34:17;;;;;;;7.90;7.20;;;;;;;;;;5072446;28;20403;-57
2022/04/04 00:36:43;;;;;;;8.30;7.50;;;;;;;;;;5072403;28;20398;-57
2022/04/04 00:39:16;;;;;;;9.33;7.43;;;;;;;;;;5072328;28;20462;-59
2022/04/04 00:41:44;;;;;;;8.00;7.23;;;;;;;;;;5071925;28;20415;-63
2022/04/04 00:44:10;;;;;;;7.60;6.90;;;;;;;;;;5072496;28;20421;-54
2022/04/04 00:46:40;;;;;;;7.00;6.40;;;;;;;;;;5071078;28;20417;-58
2022/04/04 00:49:05;;;;;;;8.13;6.90;;;;;;;;;;5072274;28;20399;-60
2022/04/04 00:51:32;;;;;;;7.80;7.20;;;;;;;;;;5072301;28;20437;-57
2022/04/04 00:53:58;;;;;;;7.87;7.17;;;;;;;;;;5072287;28;20413;-59
2022/04/04 00:56:26;;;;;;;8.17;7.37;;;;;;;;;;5072294;28;20413;-56
2022/04/04 00:58:53;;;;;;;8.50;7.53;;;;;;;;;;5072091;28;20394;-60
2022/04/04 01:01:19;;;;;;;10.37;7.30;;;;;;;;;;5072332;28;20458;-60
2022/04/04 01:03:45;;;;;;;9.70;7.63;;;;;;;;;;5074742;28;20402;-55
2022/04/04 01:06:11;;;;;;;8.00;7.10;;;;;;;;;;5076080;28;20425;-57
2022/04/04 01:08:37;;;;;;;8.07;7.27;;;;;;;;;;5076081;28;20395;-53
2022/04/04 01:11:03;;;;;;;14.37;7.00;;;;;;;;;;5076026;28;20440;-57
2022/04/04 01:13:29;;;;;;;8.47;7.70;;;;;;;;;;5075871;28;20441;-57
2022/04/04 01:15:55;;;;;;;8.50;7.60;;;;;;;;;;5074574;28;20422;-53
2022/04/04 01:18:24;;;;;;;8.80;7.90;;;;;;;;;;5076039;28;20862;-54
2022/04/04 01:20:50;;;;;;;10.07;7.80;;;;;;;;;;5075539;28;20564;-53
2022/04/04 01:23:22;;;;;;;9.73;7.63;;;;;;;;;;5075716;28;20409;-54
2022/04/04 01:25:48;;;;;;;9.80;7.97;;;;;;;;;;5075796;28;20411;-58
2022/04/04 01:28:14;;;;;;;9.63;7.73;;;;;;;;;;5075695;28;20409;-55
2022/04/04 01:30:40;;;;;;;9.93;8.07;;;;;;;;;;5074307;28;20513;-53
2022/04/04 01:33:09;;;;;;;8.30;7.60;;;;;;;;;;5075569;28;20940;-54
2022/04/04 01:35:38;;;;;;;8.93;7.70;;;;;;;;;;5075504;28;20417;-53
2022/04/04 01:38:04;;;;;;;8.57;7.67;;;;;;;;;;5075405;28;20540;-55
2022/04/04 01:40:30;;;;;;;8.57;7.77;;;;;;;;;;5075378;28;20504;-60
2022/04/04 01:42:56;;;;;;;12.70;8.20;;;;;;;;;;5075304;28;20414;-57
2022/04/04 01:48:13;;;;;;;10.50;8.43;;;;;;;;;;5075279;28;20425;-58
2022/04/04 01:50:39;;;;;;;9.00;8.10;;;;;;;;;;5075114;28;20411;-60
2022/04/04 01:55:50;;;;;;;10.37;7.13;;;;;;;;;;5075482;28;20460;-60
2022/04/04 01:58:16;;;;;;;8.57;7.77;;;;;;;;;;5075058;28;20395;-58
2022/04/04 02:00:42;;;;;;;9.30;7.50;;;;;;;;;;5074869;28;21050;-60
2022/04/04 02:03:08;;;;;;;10.73;7.90;;;;;;;;;;5074999;28;20395;-57
2022/04/04 02:05:35;;;;;;;9.53;8.53;;;;;;;;;;5074895;28;20413;-59
2022/04/04 02:08:01;;;;;;;9.13;8.20;;;;;;;;;;5074780;28;20468;-60
2022/04/04 02:10:27;;;;;;;10.70;8.00;;;;;;;;;;5073560;28;20497;-56
2022/04/04 02:12:53;;;;;;;9.07;7.90;;;;;;;;;;5074468;28;21002;-57
2022/04/04 02:15:19;;;;;;;11.90;8.40;;;;;;;;;;5073524;28;20510;-61
2022/04/04 02:17:45;;;;;;;10.63;8.90;;;;;;;;;;5073483;28;20419;-57
2022/04/04 02:20:11;;;;;;;13.63;8.57;;;;;;;;;;5074356;28;20479;-54
2022/04/04 02:22:37;;;;;;;11.70;8.50;;;;;;;;;;5074500;28;20411;-57
2022/04/04 02:25:03;;;;;;;10.60;8.40;;;;;;;;;;5074566;28;20494;-56
2022/04/04 02:27:32;;;;;;;11.20;8.60;;;;;;;;;;5074430;28;20399;-56
2022/04/04 02:29:58;;;;;;;13.37;9.30;;;;;;;;;;5074542;28;20461;-55
2022/04/04 02:32:24;;;;;;;9.43;8.50;;;;;;;;;;5074370;28;20410;-54
2022/04/04 02:34:50;;;;;;;10.07;8.63;;;;;;;;;;5074572;28;20407;-53
2022/04/04 02:37:17;;;;;;;9.37;8.40;;;;;;;;;;5074321;28;20572;-54
2022/04/04 02:39:43;;;;;;;10.63;8.40;;;;;;;;;;5074144;28;20454;-55
2022/04/04 02:42:09;;;;;;;10.17;8.17;;;;;;;;;;5074273;28;20433;-55
2022/04/04 02:44:36;;;;;;;11.80;9.40;;;;;;;;;;5074118;28;20399;-57
2022/04/04 02:47:02;;;;;;;10.67;8.10;;;;;;;;;;5074147;28;20810;-58
2022/04/04 02:49:29;;;;;;;12.40;8.57;;;;;;;;;;5074093;28;20410;-57
2022/04/04 02:51:55;;;;;;;8.73;6.27;;;;;;;;;;5074011;28;20403;-56
2022/04/04 02:54:21;;;;;;;10.57;8.97;;;;;;;;;;5074127;28;20446;-58
2022/04/04 02:56:47;;;;;;;10.00;9.00;;;;;;;;;;5072700;28;20415;-54
2022/04/04 02:59:13;;;;;;;10.67;9.13;;;;;;;;;;5073723;28;20410;-56
2022/04/04 03:01:41;;;;;;;12.97;8.50;;;;;;;;;;5073724;28;20430;-60
2022/04/04 03:04:10;;;;;;;11.50;9.47;;;;;;;;;;5072475;28;20414;-60
2022/04/04 03:06:36;;;;;;;13.77;9.13;;;;;;;;;;5073724;28;20906;-62
2022/04/04 03:09:02;;;;;;;11.83;9.13;;;;;;;;;;5072361;28;20429;-57
2022/04/04 03:11:28;;;;;;;9.37;8.13;;;;;;;;;;5073759;28;20407;-54
2022/04/04 03:13:54;;;;;;;11.77;8.83;;;;;;;;;;5073563;28;20494;-60
2022/04/04 03:16:20;;;;;;;12.00;9.33;;;;;;;;;;5073818;28;20887;-61
2022/04/04 03:18:46;;;;;;;13.97;9.20;;;;;;;;;;5072158;28;20414;-63
2022/04/04 03:21:13;;;;;;;12.37;9.50;;;;;;;;;;5073285;28;20509;-60
2022/04/04 03:23:42;;;;;;;13.53;9.40;;;;;;;;;;5073330;28;20442;-64
2022/04/04 03:26:09;;;;;;;12.00;9.37;;;;;;;;;;5072706;28;20910;-62
2022/04/04 03:28:36;;;;;;;11.30;8.70;;;;;;;;;;5073190;28;20411;-61
2022/04/04 03:31:04;;;;;;;11.00;9.47;;;;;;;;;;5073153;28;20454;-63
2022/04/04 03:33:30;;;;;;;10.80;9.10;;;;;;;;;;5073061;28;20434;-58
2022/04/04 03:35:56;;;;;;;12.13;9.43;;;;;;;;;;5071820;28;20504;-64
2022/04/04 03:38:22;;;;;;;12.53;9.77;;;;;;;;;;5073103;28;20407;-58
2022/04/04 03:40:48;;;;;;;17.00;10.40;;;;;;;;;;5073055;28;20477;-63
2022/04/04 03:43:17;;;;;;;12.80;10.37;;;;;;;;;;5072779;28;20433;-57
2022/04/04 03:45:43;;;;;;;12.43;9.60;;;;;;;;;;5072888;28;20433;-60
2022/04/04 03:48:09;;;;;;;14.77;10.90;;;;;;;;;;5072872;28;20402;-62
2022/04/04 03:50:35;;;;;;;16.93;12.00;;;;;;;;;;5072841;28;20926;-57
2022/04/04 03:53:01;;;;;;;14.73;10.47;;;;;;;;;;5072900;28;20409;-59
2022/04/04 03:55:29;;;;;;;14.70;10.23;;;;;;;;;;5072976;28;20426;-60
2022/04/04 03:57:55;;;;;;;14.60;10.80;;;;;;;;;;5072846;28;20402;-67
2022/04/04 04:00:22;;;;;;;16.50;11.80;;;;;;;;;;5072879;28;20477;-61
2022/04/04 04:02:48;;;;;;;14.23;10.77;;;;;;;;;;5072900;28;20910;-63
2022/04/04 04:05:14;;;;;;;14.90;11.33;;;;;;;;;;5072842;28;20422;-62
2022/04/04 04:07:41;;;;;;;15.00;10.77;;;;;;;;;;5072711;28;20403;-63
2022/04/04 04:10:07;;;;;;;13.67;10.83;;;;;;;;;;5072780;28;20415;-64
2022/04/04 04:12:33;;;;;;;16.33;10.77;;;;;;;;;;5072627;28;20410;-56
2022/04/04 04:14:59;;;;;;;19.20;11.07;;;;;;;;;;5072651;28;20498;-55
2022/04/04 04:17:25;;;;;;;14.60;10.90;;;;;;;;;;5072616;28;20901;-58
2022/04/04 04:22:37;;;;;;;16.97;11.90;;;;;;;;;;5072687;28;20417;-56
2022/04/04 04:25:04;;;;;;;15.00;10.77;;;;;;;;;;5071226;28;20808;-57
2022/04/04 04:27:30;;;;;;;15.40;11.37;;;;;;;;;;5053367;28;20784;-60
2022/04/04 04:29:56;;;;;;;15.00;10.87;;;;;;;;;;5052020;28;20408;-56
2022/04/04 04:32:22;;;;;;;15.77;11.57;;;;;;;;;;5051669;28;20399;-57
2022/04/04 04:34:50;;;;;;;14.67;10.97;;;;;;;;;;5051043;28;20408;-57
2022/04/04 04:37:17;;;;;;;13.70;10.90;;;;;;;;;;5055720;28;20435;-63
2022/04/04 04:39:43;;;;;;;16.07;12.03;;;;;;;;;;5056376;28;20979;-62
2022/04/04 04:42:09;;;;;;;16.60;10.90;;;;;;;;;;5056403;28;20497;-54
2022/04/04 04:44:35;;;;;;;14.90;10.17;;;;;;;;;;5056288;28;20895;-59
2022/04/04 04:47:01;;;;;;;14.27;10.80;;;;;;;;;;5056478;28;20427;-55
2022/04/04 04:49:27;;;;;;;16.77;11.33;;;;;;;;;;5056288;28;20420;-57
2022/04/04 04:51:53;;;;;;;20.83;11.83;;;;;;;;;;5055083;28;20456;-54
2022/04/04 04:54:19;;;;;;;17.07;10.83;;;;;;;;;;5054947;28;20426;-59
2022/04/04 04:56:46;;;;;;;17.87;11.70;;;;;;;;;;5056104;28;20415;-62
2022/04/04 04:59:13;;;;;;;17.87;11.43;;;;;;;;;;5053245;28;20420;-57
2022/04/04 05:01:39;;;;;;;18.73;11.63;;;;;;;;;;5054268;28;20411;-66
2022/04/04 05:04:05;;;;;;;17.13;11.30;;;;;;;;;;5056006;28;20400;-55
2022/04/04 05:06:34;;;;;;;24.40;12.47;;;;;;;;;;5054637;28;20419;-63
2022/04/04 05:09:00;;;;;;;19.73;12.10;;;;;;;;;;5037491;28;20762;-64
2022/04/04 05:11:29;;;;;;;16.63;11.67;;;;;;;;;;5053733;28;20469;-64
2022/04/04 05:13:55;;;;;;;20.97;12.10;;;;;;;;;;5055050;28;20494;-69
2022/04/04 05:16:28;;;;;;;18.23;12.00;;;;;;;;;;5055400;28;20447;-57
2022/04/04 05:18:54;;;;;;;19.90;12.60;;;;;;;;;;5054935;28;20415;-58
2022/04/04 05:21:21;;;;;;;17.50;12.60;;;;;;;;;;5053433;28;20479;-59
2022/04/04 05:23:47;;;;;;;19.63;12.07;;;;;;;;;;5054677;28;20411;-66
2022/04/04 05:26:13;;;;;;;17.40;12.97;;;;;;;;;;5054342;28;20477;-65
2022/04/04 05:28:39;;;;;;;16.10;12.37;;;;;;;;;;5054528;28;20498;-56
2022/04/04 05:31:05;;;;;;;18.07;12.70;;;;;;;;;;5054545;28;20414;-57
2022/04/04 05:33:32;;;;;;;16.17;11.90;;;;;;;;;;5054502;28;20427;-59
2022/04/04 05:35:58;;;;;;;16.63;11.67;;;;;;;;;;5054338;28;20411;-57
2022/04/04 05:38:25;;;;;;;20.33;13.03;;;;;;;;;;5054262;28;20403;-59
2022/04/04 05:40:54;;;;;;;19.80;12.23;;;;;;;;;;5054453;28;20458;-59
2022/04/04 05:43:20;;;;;;;15.93;11.33;;;;;;;;;;5054469;28;20404;-54
2022/04/04 05:45:49;;;;;;;19.23;13.40;;;;;;;;;;5054799;28;20419;-55
2022/04/04 05:48:18;;;;;;;23.93;12.50;;;;;;;;;;5054455;28;20872;-63
2022/04/04 05:50:44;;;;;;;23.50;12.13;;;;;;;;;;5054842;28;20494;-61
2022/04/04 05:53:10;;;;;;;20.23;13.53;;;;;;;;;;5055100;28;20465;-68
2022/04/04 05:55:36;;;;;;;19.50;12.00;;;;;;;;;;5054766;28;20411;-65
2022/04/04 05:58:02;;;;;;;17.13;12.00;;;;;;;;;;5053669;28;20781;-59
2022/04/04 06:00:28;;;;;;;15.10;11.90;;;;;;;;;;5054848;28;20931;-66
2022/04/04 06:02:55;;;;;;;17.30;11.50;;;;;;;;;;5054855;28;20937;-64
2022/04/04 06:05:21;;;;;;;16.23;12.10;;;;;;;;;;5053878;28;20463;-64
2022/04/04 06:07:47;;;;;;;20.80;12.63;;;;;;;;;;5054814;28;20411;-63
2022/04/04 06:10:16;;;;;;;17.03;13.10;;;;;;;;;;5054714;28;20415;-65
2022/04/04 06:12:46;;;;;;;21.70;12.67;;;;;;;;;;5054639;28;20403;-68
2022/04/04 06:15:14;;;;;;;16.07;11.50;;;;;;;;;;5054621;28;20412;-61
2022/04/04 06:17:41;;;;;;;14.83;11.57;;;;;;;;;;5054571;28;20738;-61
2022/04/04 06:20:08;;;;;;;16.67;12.80;;;;;;;;;;5054326;28;20467;-65
2022/04/04 06:22:38;;;;;;;17.57;11.70;;;;;;;;;;5053022;28;20935;-65
2022/04/04 06:25:07;;;;;;;16.90;12.10;;;;;;;;;;5054460;28;20760;-69
2022/04/04 06:27:33;;;;;;;17.20;11.50;;;;;;;;;;5054480;28;20404;-59
2022/04/04 06:29:59;;;;;;;17.80;12.20;;;;;;;;;;5053069;28;20434;-57
2022/04/04 06:32:25;;;;;;;15.60;11.80;;;;;;;;;;5053095;28;20904;-59
2022/04/04 06:34:51;;;;;;;23.73;12.37;;;;;;;;;;5054253;28;20439;-61
2022/04/04 06:37:18;;;;;;;14.67;11.67;;;;;;;;;;5054345;28;20408;-54
2022/04/04 06:39:44;;;;;;;14.03;11.20;;;;;;;;;;5054189;28;20455;-59
2022/04/04 06:42:11;;;;;;;20.40;10.80;;;;;;;;;;5052847;28;20416;-62
2022/04/04 06:44:40;;;;;;;16.73;12.57;;;;;;;;;;5054219;28;20895;-66
2022/04/04 06:47:06;;;;;;;19.00;12.67;;;;;;;;;;5052894;28;20434;-64
2022/04/04 06:49:32;;;;;;;18.50;12.23;;;;;;;;;;5052886;28;20418;-60
2022/04/04 06:51:58;;;;;;;19.87;10.73;;;;;;;;;;5053973;28;20776;-60
2022/04/04 06:54:24;;;;;;;16.80;12.00;;;;;;;;;;5053847;28;20440;-57
2022/04/04 06:56:53;;;;;;;15.00;9.83;;;;;;;;;;5053977;28;20415;-56
2022/04/04 06:59:20;;;;;;;20.17;13.10;;;;;;;;;;5052980;28;20408;-60
2022/04/04 07:01:47;;;;;;;16.53;12.60;;;;;;;;;;5052538;28;20420;-58
2022/04/04 07:04:14;;;;;;;14.73;11.53;;;;;;;;;;5053850;28;20404;-59
2022/04/04 07:06:40;;;;;;;17.70;12.97;;;;;;;;;;5052571;28;20450;-57
2022/04/04 07:09:07;;;;;;;16.70;13.13;;;;;;;;;;5053780;28;20408;-61
2022/04/04 07:11:34;;;;;;;15.50;11.90;;;;;;;;;;5052493;28;20438;-58
2022/04/04 07:14:00;;;;;;;17.10;12.50;;;;;;;;;;5053891;28;20420;-58
2022/04/04 07:16:26;;;;;;;17.77;13.23;;;;;;;;;;5053714;28;20416;-58
2022/04/04 07:18:52;;;;;;;14.13;12.40;;;;;;;;;;5053372;28;20941;-58
2022/04/04 07:21:18;;;;;;;17.90;12.50;;;;;;;;;;5053574;28;20471;-59
2022/04/04 07:23:45;;;;;;;27.03;13.77;;;;;;;;;;5053472;28;20408;-57
2022/04/04 07:26:11;;;;;;;18.60;11.93;;;;;;;;;;5052210;28;20943;-60
2022/04/04 07:28:42;;;;;;;16.73;14.00;;;;;;;;;;5052338;28;20415;-57
2022/04/04 07:31:09;;;;;;;20.87;14.20;;;;;;;;;;5053306;28;20416;-63
2022/04/04 07:33:35;;;;;;;21.30;14.90;;;;;;;;;;5052153;28;20746;-65
2022/04/04 07:36:01;;;;;;;23.97;14.40;;;;;;;;;;5053268;28;20419;-66
2022/04/04 07:38:28;;;;;;;19.43;14.00;;;;;;;;;;5053072;28;20419;-67
2022/04/04 07:40:54;;;;;;;17.80;11.07;;;;;;;;;;5052990;28;20467;-65
2022/04/04 07:43:20;;;;;;;19.90;14.77;;;;;;;;;;5051890;28;20415;-66
2022/04/04 07:45:46;;;;;;;18.63;14.20;;;;;;;;;;5053039;28;20442;-68
2022/04/04 07:48:12;;;;;;;20.73;14.63;;;;;;;;;;5052900;28;20799;-66
2022/04/04 07:50:41;;;;;;;20.47;14.40;;;;;;;;;;5053157;28;20443;-68
2022/04/04 07:53:07;;;;;;;21.10;11.83;;;;;;;;;;5053100;28;20434;-70
2022/04/04 07:55:36;;;;;;;18.47;10.80;;;;;;;;;;5052967;28;20939;-70
2022/04/04 07:58:02;;;;;;;17.10;13.37;;;;;;;;;;5054433;28;20419;-57
2022/04/04 08:00:28;;;;;;;18.13;13.50;;;;;;;;;;5084282;28;20560;-61
2022/04/04 08:02:55;;;;;;;18.23;13.23;;;;;;;;;;5080975;28;20406;-63
2022/04/04 08:05:21;;;;;;;16.30;13.20;;;;;;;;;;5072230;28;20830;-62
2022/04/04 08:07:48;;;;;;;15.60;13.07;;;;;;;;;;5087118;28;20425;-61
2022/04/04 08:10:15;;;;;;;18.40;13.93;;;;;;;;;;5090791;28;20422;-59
2022/04/04 08:12:41;;;;;;;16.93;13.57;;;;;;;;;;5090907;28;20815;-59
2022/04/04 08:15:09;;;;;;;18.90;14.20;;;;;;;;;;5090919;28;20410;-58
2022/04/04 08:17:35;;;;;;;18.00;10.50;;;;;;;;;;5092090;28;20485;-63
2022/04/04 08:20:02;;;;;;;15.40;12.60;;;;;;;;;;5091689;28;20477;-62
2022/04/04 08:22:29;;;;;;;15.67;11.97;;;;;;;;;;5092322;28;20437;-58
2022/04/04 08:24:56;;;;;;;15.23;13.43;;;;;;;;;;5090561;28;20487;-60
2022/04/04 08:27:24;;;;;;;16.77;13.67;;;;;;;;;;5092268;28;20496;-60
2022/04/04 08:29:52;;;;;;;17.10;13.33;;;;;;;;;;5092015;28;20408;-59
2022/04/04 08:32:18;;;;;;;16.30;12.33;;;;;;;;;;5084683;28;20502;-57
2022/04/04 08:34:44;;;;;;;16.30;12.17;;;;;;;;;;5065306;28;20563;-58
2022/04/04 08:37:10;;;;;;;17.77;13.80;;;;;;;;;;5053603;28;20911;-60
2022/04/04 08:39:36;;;;;;;22.70;13.53;;;;;;;;;;5070403;28;20782;-57
2022/04/04 08:42:03;;;;;;;22.17;12.03;;;;;;;;;;5065653;28;20435;-57
2022/04/04 08:44:29;;;;;;;21.60;13.50;;;;;;;;;;5051537;28;20400;-58
2022/04/04 08:46:55;;;;;;;17.13;11.77;;;;;;;;;;5051326;28;20404;-56
2022/04/04 08:49:22;;;;;;;19.47;13.87;;;;;;;;;;5051526;28;20403;-57
2022/04/04 08:51:49;;;;;;;19.73;13.90;;;;;;;;;;5067453;28;20417;-57
2022/04/04 08:54:15;;;;;;;17.27;13.53;;;;;;;;;;5071511;28;20767;-59
2022/04/04 08:56:43;;;;;;;14.97;12.00;;;;;;;;;;5071330;28;20578;-57
2022/04/04 08:59:09;;;;;;;22.90;14.10;;;;;;;;;;5070081;28;20437;-58
2022/04/04 09:01:35;;;;;;;16.10;12.73;;;;;;;;;;5070306;28;20470;-56
2022/04/04 09:04:01;;;;;;;16.87;13.23;;;;;;;;;;5071497;28;20423;-57
2022/04/04 09:06:28;;;;;;;14.77;11.90;;;;;;;;;;5078857;28;20418;-57
2022/04/04 09:08:56;;;;;;;14.77;13.13;;;;;;;;;;5073825;28;20414;-62
2022/04/04 09:11:25;;;;;;;16.50;12.37;;;;;;;;;;5071685;28;20399;-58
2022/04/04 09:14:06;;;;;;;16.00;12.47;;;;;;;;;;5071416;28;20468;-57
2022/04/04 09:16:32;;;;;;;16.03;12.53;;;;;;;;;;5071561;28;20569;-58
2022/04/04 09:18:59;;;;;;;24.60;12.10;;;;;;;;;;5070951;28;20414;-55
2022/04/04 09:21:25;;;;;;;16.53;12.73;;;;;;;;;;5071313;28;20509;-56
2022/04/04 09:23:54;;;;;;;27.17;13.10;;;;;;;;;;5073463;28;20417;-55
2022/04/04 09:26:28;;;;;;;16.33;11.70;;;;;;;;;;5073689;28;20422;-57
2022/04/04 09:28:55;;;;;;;18.73;10.50;;;;;;;;;;5074808;28;20407;-60
2022/04/04 09:31:21;;;;;;;16.37;11.07;;;;;;;;;;5075140;28;20906;-55
2022/04/04 09:33:47;;;;;;;14.73;10.80;;;;;;;;;;5074889;28;20402;-58
2022/04/04 09:36:13;;;;;;;17.87;11.27;;;;;;;;;;5075034;28;20399;-59
2022/04/04 09:38:45;;;;;;;16.33;11.63;;;;;;;;;;5074885;28;20394;-57
2022/04/04 09:41:14;;;;;;;12.17;10.93;;;;;;;;;;5073414;28;20604;-56
2022/04/04 09:43:53;;;;;;;14.50;9.93;;;;;;;;;;5053206;28;20495;-59
2022/04/04 09:46:23;;;;;;;14.43;11.70;;;;;;;;;;5053491;28;20408;-57
2022/04/04 09:49:04;;;;;;;18.27;11.63;;;;;;;;;;5053396;28;20416;-53
2022/04/04 09:51:41;;;;;;;14.73;11.90;;;;;;;;;;5054422;28;20946;-65
2022/04/04 09:54:08;;;;;;;18.67;11.60;;;;;;;;;;5054468;28;20403;-57
2022/04/04 09:56:34;;;;;;;12.77;11.30;;;;;;;;;;5054444;28;20923;-59
2022/04/04 09:59:00;;;;;;;12.53;9.57;;;;;;;;;;5054317;28;20499;-60
2022/04/04 10:01:27;;;;;;;13.90;9.60;;;;;;;;;;5054201;28;20459;-59
2022/04/04 10:03:56;;;;;;;15.27;11.57;;;;;;;;;;5054115;28;20473;-59
2022/04/04 10:06:23;;;;;;;12.30;10.30;;;;;;;;;;5067621;28;20524;-57
2022/04/04 10:08:55;;;;;;;11.10;9.70;;;;;;;;;;5094310;28;20487;-59
2022/04/04 10:11:23;;;;;;;10.73;9.30;;;;;;;;;;5093386;28;20812;-57
2022/04/04 10:13:49;;;;;;;12.60;10.10;;;;;;;;;;5094341;28;20402;-59
2022/04/04 10:16:18;;;;;;;16.70;9.90;;;;;;;;;;5094133;28;20393;-55
2022/04/04 10:18:44;;;;;;;14.30;10.20;;;;;;;;;;5094299;28;20433;-56
2022/04/04 10:21:11;;;;;;;12.60;9.87;;;;;;;;;;5093832;28;20482;-56
2022/04/04 10:23:38;;;;;;;10.37;9.30;;;;;;;;;;5094157;28;20437;-57
2022/04/04 10:26:06;;;;;;;10.93;8.10;;;;;;;;;;5092440;28;20414;-53
2022/04/04 10:28:34;;;;;;;11.93;10.23;;;;;;;;;;5094167;28;20402;-54
2022/04/04 10:31:10;;;;;;;11.97;9.47;;;;;;;;;;5092392;28;20418;-55
2022/04/04 10:33:36;;;;;;;10.10;7.70;;;;;;;;;;5092115;28;20816;-57
2022/04/04 10:36:02;;;;;;;10.07;9.07;;;;;;;;;;5093863;28;20432;-55
2022/04/04 10:38:31;;;;;;;13.33;9.00;;;;;;;;;;5092464;28;20977;-57
2022/04/04 10:40:58;;;;;;;10.77;7.80;;;;;;;;;;5093590;28;21191;-55
2022/04/04 10:43:24;;;;;;;12.97;9.00;;;;;;;;;;5073887;28;20411;-61
2022/04/04 10:45:50;;;;;;;10.73;8.67;;;;;;;;;;5073483;28;20419;-59
2022/04/04 10:48:19;;;;;;;15.20;9.07;;;;;;;;;;5073405;28;20766;-60
2022/04/04 10:50:46;;;;;;;7.77;7.00;;;;;;;;;;5073107;28;20910;-55
2022/04/04 10:53:12;;;;;;;12.30;7.43;;;;;;;;;;5073385;28;20399;-58
2022/04/04 10:55:38;;;;;;;8.17;7.37;;;;;;;;;;5072827;28;20429;-54
2022/04/04 10:58:13;;;;;;;11.97;8.27;;;;;;;;;;5073302;28;20517;-57
2022/04/04 11:00:51;;;;;;;10.63;9.50;;;;;;;;;;5073220;28;20470;-61
2022/04/04 11:03:17;;;;;;;11.40;8.37;;;;;;;;;;5073231;28;20407;-56
2022/04/04 11:09:03;;;;;;;10.17;8.97;;;;;;;;;;5093235;28;20466;-58
2022/04/04 11:11:48;;;;;;;11.77;8.93;;;;;;;;;;5091772;28;20437;-56
2022/04/04 11:14:39;;;;;;;12.70;8.70;;;;;;;;;;5091603;28;20440;-57
2022/04/04 11:17:07;;;;;;;9.50;8.50;;;;;;;;;;5093232;28;20406;-56
2022/04/04 11:19:46;;;;;;;10.47;8.00;;;;;;;;;;5091434;28;20469;-60
2022/04/04 11:22:14;;;;;;;8.37;7.57;;;;;;;;;;5093017;28;20519;-62
2022/04/04 11:24:40;;;;;;;10.20;7.40;;;;;;;;;;5092895;28;20413;-56
2022/04/04 11:27:07;;;;;;;21.80;9.20;;;;;;;;;;5092807;28;20456;-56
2022/04/04 11:29:36;;;;;;;13.70;8.60;;;;;;;;;;5092832;28;20406;-63
2022/04/04 11:32:02;;;;;;;14.07;9.30;;;;;;;;;;5092653;28;20437;-63
2022/04/04 11:34:31;;;;;;;9.93;8.93;;;;;;;;;;5092779;28;20406;-60
2022/04/04 11:36:58;;;;;;;10.90;8.83;;;;;;;;;;5092606;28;20448;-64
2022/04/04 11:39:24;;;;;;;11.10;9.43;;;;;;;;;;5092547;28;20401;-54
2022/04/04 11:41:51;;;;;;;17.47;9.73;;;;;;;;;;5086076;28;20551;-59
2022/04/04 11:44:25;;;;;;;10.20;9.20;;;;;;;;;;5072383;28;20494;-58
2022/04/04 11:47:04;;;;;;;10.00;9.00;;;;;;;;;;5071756;28;20809;-58
2022/04/04 11:49:34;;;;;;;10.73;8.60;;;;;;;;;;5072228;28;20460;-57
2022/04/04 11:52:04;;;;;;;10.03;8.73;;;;;;;;;;5072113;28;20415;-60
2022/04/04 11:54:50;;;;;;;11.90;7.07;;;;;;;;;;5072155;28;20418;-61
2022/04/04 11:57:17;;;;;;;14.97;10.30;;;;;;;;;;5072067;28;20403;-58
2022/04/04 11:59:44;;;;;;;13.07;9.50;;;;;;;;;;5071896;28;20821;-60
2022/04/04 12:02:11;;;;;;;13.10;9.87;;;;;;;;;;5070633;28;20427;-60
2022/04/04 12:04:37;;;;;;;11.67;8.60;;;;;;;;;;5071995;28;20976;-60
2022/04/04 12:07:04;;;;;;;11.33;10.23;;;;;;;;;;5084266;28;20560;-60
2022/04/04 12:09:31;;;;;;;10.97;8.80;;;;;;;;;;5092146;28;20494;-56
2022/04/04 12:12:04;;;;;;;10.27;9.27;;;;;;;;;;5090811;28;20792;-59
2022/04/04 12:14:34;;;;;;;9.30;8.00;;;;;;;;;;5092085;28;20480;-65
2022/04/04 12:17:00;;;;;;;11.07;9.00;;;;;;;;;;5091894;28;20496;-63
2022/04/04 12:19:26;;;;;;;12.70;10.63;;;;;;;;;;5091832;28;20457;-61
2022/04/04 12:21:53;;;;;;;11.40;8.50;;;;;;;;;;5091806;28;20413;-58
2022/04/04 12:27:10;;;;;;;9.60;8.60;;;;;;;;;;5091831;28;20927;-58
2022/04/04 12:29:39;;;;;;;13.10;10.70;;;;;;;;;;5091704;28;20406;-62
2022/04/04 12:32:12;;;;;;;10.87;9.77;;;;;;;;;;5090771;28;20404;-59
2022/04/04 12:34:38;;;;;;;12.40;10.77;;;;;;;;;;5091715;28;20410;-59
2022/04/04 12:37:08;;;;;;;11.53;9.90;;;;;;;;;;5091764;28;20402;-52
2022/04/04 12:39:34;;;;;;;11.83;10.07;;;;;;;;;;5091615;28;20445;-61
2022/04/04 12:42:06;;;;;;;10.77;9.67;;;;;;;;;;5083837;28;20423;-61
2022/04/04 12:44:35;;;;;;;13.87;10.17;;;;;;;;;;5071682;28;20403;-61
2022/04/04 12:47:08;;;;;;;13.20;10.20;;;;;;;;;;5071501;28;20910;-57
2022/04/04 12:49:38;;;;;;;15.10;8.87;;;;;;;;;;5070333;28;20499;-54
2022/04/04 12:52:08;;;;;;;12.50;11.20;;;;;;;;;;5071595;28;20438;-60
2022/04/04 12:54:35;;;;;;;10.63;9.60;;;;;;;;;;5070222;28;20517;-60
2022/04/04 12:57:03;;;;;;;14.50;10.67;;;;;;;;;;5072684;28;20438;-55
2022/04/04 12:59:29;;;;;;;16.57;9.40;;;;;;;;;;5075376;28;20407;-53
2022/04/04 13:02:01;;;;;;;10.20;8.33;;;;;;;;;;5075348;28;20407;-57
2022/04/04 13:04:29;;;;;;;12.20;9.10;;;;;;;;;;5075338;28;20421;-59
2022/04/04 13:06:56;;;;;;;9.83;8.07;;;;;;;;;;5085176;28;20424;-57
2022/04/04 13:09:26;;;;;;;11.70;10.30;;;;;;;;;;5095622;28;20410;-60
2022/04/04 13:11:53;;;;;;;11.50;10.30;;;;;;;;;;5095342;28;20829;-57
2022/04/04 13:14:22;;;;;;;9.53;7.97;;;;;;;;;;5095600;28;20804;-55
2022/04/04 13:16:56;;;;;;;11.70;8.97;;;;;;;;;;5095477;28;20390;-55
2022/04/04 13:19:26;;;;;;;12.90;11.10;;;;;;;;;;5095243;28;20840;-56
2022/04/04 13:21:53;;;;;;;15.37;10.57;;;;;;;;;;5095135;28;20504;-56
2022/04/04 13:24:19;;;;;;;14.37;10.93;;;;;;;;;;5095074;28;20413;-59
2022/04/04 13:26:49;;;;;;;16.83;9.80;;;;;;;;;;5095175;28;20444;-63
2022/04/04 13:29:18;;;;;;;11.07;9.87;;;;;;;;;;5095090;28;20914;-59
2022/04/04 13:31:45;;;;;;;13.17;9.63;;;;;;;;;;5094891;28;20410;-59
2022/04/04 13:34:11;;;;;;;9.17;8.07;;;;;;;;;;5094962;28;20437;-62
2022/04/04 13:36:38;;;;;;;11.90;10.30;;;;;;;;;;5093446;28;20429;-61
2022/04/04 13:39:05;;;;;;;10.90;9.73;;;;;;;;;;5084768;28;20406;-58
2022/04/04 13:41:33;;;;;;;12.90;10.17;;;;;;;;;;5074175;28;20539;-62
2022/04/04 13:43:59;;;;;;;13.87;10.37;;;;;;;;;;5074045;28;20438;-56
2022/04/04 13:46:26;;;;;;;14.37;10.13;;;;;;;;;;5074500;28;20630;-55
2022/04/04 13:48:52;;;;;;;13.13;11.30;;;;;;;;;;5074522;28;20974;-55
2022/04/04 13:51:21;;;;;;;16.67;11.43;;;;;;;;;;5074722;28;20415;-57
2022/04/04 13:53:50;;;;;;;14.03;10.50;;;;;;;;;;5073446;28;20449;-60
2022/04/04 13:56:18;;;;;;;15.53;11.33;;;;;;;;;;5074385;28;20466;-58
2022/04/04 13:58:44;;;;;;;13.07;10.27;;;;;;;;;;5074321;28;20497;-63
2022/04/04 14:01:11;;;;;;;12.20;10.43;;;;;;;;;;5074259;28;20493;-60
2022/04/04 14:03:40;;;;;;;12.80;10.30;;;;;;;;;;5072668;28;20461;-60
2022/04/04 14:06:06;;;;;;;11.70;9.70;;;;;;;;;;5078536;28;20421;-56
2022/04/04 14:08:32;;;;;;;13.03;11.63;;;;;;;;;;5092823;28;20413;-60
2022/04/04 14:11:01;;;;;;;16.90;11.17;;;;;;;;;;5094332;28;20921;-63
2022/04/04 14:13:27;;;;;;;17.23;11.27;;;;;;;;;;5094514;28;20792;-64
2022/04/04 14:15:53;;;;;;;18.87;11.77;;;;;;;;;;5094215;28;20418;-60
2022/04/04 14:18:21;;;;;;;11.33;9.27;;;;;;;;;;5094394;28;20438;-63
2022/04/04 14:20:47;;;;;;;12.10;9.77;;;;;;;;;;5094019;28;20890;-59
2022/04/04 14:23:13;;;;;;;11.93;10.17;;;;;;;;;;5094159;28;20442;-63
2022/04/04 14:25:40;;;;;;;13.23;10.67;;;;;;;;;;5092589;28;20503;-61
2022/04/04 14:28:06;;;;;;;15.00;10.07;;;;;;;;;;5092428;28;20463;-58
2022/04/04 14:30:32;;;;;;;12.83;10.57;;;;;;;;;;5092653;28;20934;-63
2022/04/04 14:32:58;;;;;;;11.27;9.83;;;;;;;;;;5094013;28;20959;-63
2022/04/04 14:35:24;;;;;;;12.20;10.00;;;;;;;;;;5092592;28;20426;-61
2022/04/04 14:37:50;;;;;;;11.47;9.13;;;;;;;;;;5093876;28;20402;-63
2022/04/04 14:40:16;;;;;;;11.37;9.77;;;;;;;;;;5093573;28;20488;-63